createdAt,value
2022-08-26T00:01:07.053Z,6.72
2022-08-26T00:03:36.438Z,6.97
2022-08-26T00:06:05.537Z,5.90
2022-08-26T00:08:33.460Z,5.85
2022-08-26T00:11:01.923Z,5.72
2022-08-26T00:13:30.380Z,5.70
2022-08-26T00:16:01.099Z,5.85
2022-08-26T00:18:30.353Z,5.93
2022-08-26T00:21:01.491Z,6.13
2022-08-26T00:23:34.833Z,6.00
2022-08-26T00:26:05.320Z,5.68
2022-08-26T00:28:36.227Z,6.25
2022-08-26T00:31:04.589Z,6.15
2022-08-26T00:33:35.179Z,6.47
2022-08-26T00:36:03.421Z,6.35
2022-08-26T00:38:32.213Z,5.43
2022-08-26T00:41:00.820Z,5.47
2022-08-26T00:43:47.551Z,6.07
2022-08-26T00:46:33.844Z,7.35
2022-08-26T00:52:23.123Z,6.28
2022-08-26T00:55:02.661Z,6.40
2022-08-26T00:57:35.766Z,6.28
2022-08-26T01:00:10.251Z,5.93
2022-08-26T01:02:39.901Z,6.25
2022-08-26T01:05:15.729Z,6.05
2022-08-26T01:07:46.344Z,5.60
2022-08-26T01:10:19.300Z,5.85
2022-08-26T01:12:53.209Z,6.28
2022-08-26T01:15:26.783Z,7.65
2022-08-26T01:17:59.094Z,5.75
2022-08-26T01:20:46.308Z,7.30
2022-08-26T01:23:15.624Z,6.93
2022-08-26T01:25:47.901Z,6.32
2022-08-26T01:28:28.124Z,6.35
2022-08-26T01:30:57.583Z,6.05
2022-08-26T01:33:42.159Z,5.90
2022-08-26T01:36:12.063Z,5.80
2022-08-26T01:38:42.767Z,6.32
2022-08-26T01:41:16.317Z,6.47
2022-08-26T01:43:54.972Z,9.27
2022-08-26T01:46:24.972Z,6.20
2022-08-26T01:48:55.155Z,6.93
2022-08-26T01:51:26.276Z,5.97
2022-08-26T01:53:59.960Z,6.78
2022-08-26T01:56:33.193Z,8.25
2022-08-26T01:59:09.392Z,6.65
2022-08-26T02:01:38.822Z,6.35
2022-08-26T02:04:26.128Z,6.45
2022-08-26T02:06:57.070Z,6.32
2022-08-26T02:09:27.171Z,6.65
2022-08-26T02:11:55.699Z,6.97
2022-08-26T02:14:28.847Z,8.23
2022-08-26T02:16:57.373Z,6.45
2022-08-26T02:19:35.257Z,6.25
2022-08-26T02:22:11.761Z,7.00
2022-08-26T02:24:51.962Z,6.85
2022-08-26T02:27:24.568Z,6.30
2022-08-26T02:29:57.631Z,7.40
2022-08-26T02:32:26.095Z,7.05
2022-08-26T02:34:54.934Z,7.57
2022-08-26T02:37:23.019Z,6.43
2022-08-26T02:39:51.204Z,6.35
2022-08-26T02:42:20.017Z,6.50
2022-08-26T02:44:48.567Z,6.65
2022-08-26T02:47:16.939Z,6.90
2022-08-26T02:49:47.214Z,7.18
2022-08-26T02:52:15.350Z,6.85
2022-08-26T02:54:43.783Z,6.90
2022-08-26T02:57:13.314Z,7.53
2022-08-26T02:59:41.210Z,7.60
2022-08-26T03:02:10.633Z,6.82
2022-08-26T03:04:40.105Z,6.45
2022-08-26T03:07:08.318Z,7.57
2022-08-26T03:09:37.523Z,6.82
2022-08-26T03:12:05.565Z,7.10
2022-08-26T03:14:33.403Z,8.73
2022-08-26T03:17:01.391Z,6.13
2022-08-26T03:19:31.217Z,7.45
2022-08-26T03:21:59.202Z,7.35
2022-08-26T03:24:27.540Z,7.25
2022-08-26T03:26:55.512Z,7.38
2022-08-26T03:29:42.985Z,7.55
2022-08-26T03:32:11.454Z,6.75
2022-08-26T03:34:39.331Z,7.00
2022-08-26T03:37:07.890Z,6.70
2022-08-26T03:39:36.233Z,7.18
2022-08-26T03:42:04.464Z,7.05
2022-08-26T03:44:32.458Z,7.03
2022-08-26T03:47:00.832Z,6.60
2022-08-26T03:49:34.525Z,7.30
2022-08-26T03:52:05.399Z,6.50
2022-08-26T03:54:36.240Z,6.63
2022-08-26T03:57:09.569Z,6.80
2022-08-26T03:59:37.675Z,8.88
2022-08-26T04:02:12.045Z,8.25
2022-08-26T04:04:40.371Z,7.55
2022-08-26T04:07:08.349Z,8.35
2022-08-26T04:09:36.602Z,8.23
2022-08-26T04:12:05.744Z,7.50
2022-08-26T04:14:37.746Z,7.35
2022-08-26T04:17:06.850Z,7.88
2022-08-26T04:19:35.867Z,8.70
2022-08-26T04:22:03.619Z,7.95
2022-08-26T04:24:32.067Z,8.60
2022-08-26T04:26:59.855Z,7.88
2022-08-26T04:29:27.684Z,8.35
2022-08-26T04:31:56.474Z,13.30
2022-08-26T04:34:28.472Z,8.38
2022-08-26T04:36:57.675Z,12.73
2022-08-26T04:39:27.767Z,9.70
2022-08-26T04:41:57.746Z,9.38
2022-08-26T04:44:27.779Z,9.85
2022-08-26T04:46:56.711Z,12.57
2022-08-26T04:49:35.262Z,11.35
2022-08-26T04:52:05.253Z,11.60
2022-08-26T04:54:33.258Z,12.77
2022-08-26T04:57:00.991Z,12.57
2022-08-26T04:59:29.266Z,13.18
2022-08-26T05:01:59.446Z,13.05
2022-08-26T05:04:27.496Z,16.25
2022-08-26T05:06:59.379Z,14.55
2022-08-26T05:09:30.996Z,13.95
2022-08-26T05:11:58.846Z,17.77
2022-08-26T05:14:26.709Z,14.70
2022-08-26T05:16:54.727Z,15.05
2022-08-26T05:19:23.730Z,15.35
2022-08-26T05:21:51.395Z,14.80
2022-08-26T05:24:19.070Z,15.07
2022-08-26T05:26:48.114Z,16.20
2022-08-26T05:29:16.805Z,17.27
2022-08-26T05:31:44.723Z,15.63
2022-08-26T05:34:12.923Z,17.27
2022-08-26T05:36:41.334Z,17.15
2022-08-26T05:39:12.314Z,17.05
2022-08-26T05:41:42.131Z,16.33
2022-08-26T05:44:13.169Z,17.17
2022-08-26T05:46:44.661Z,18.52
2022-08-26T05:49:14.512Z,18.42
2022-08-26T05:51:46.343Z,19.88
2022-08-26T05:54:22.049Z,20.05
2022-08-26T05:56:52.976Z,27.55
2022-08-26T05:59:24.677Z,23.23
2022-08-26T06:01:54.871Z,25.77
2022-08-26T06:04:27.562Z,24.27
2022-08-26T06:06:57.861Z,26.52
2022-08-26T06:09:26.664Z,25.00
2022-08-26T06:11:54.547Z,26.17
2022-08-26T06:14:23.044Z,25.73
2022-08-26T06:16:50.747Z,26.77
2022-08-26T06:19:19.337Z,28.63
2022-08-26T06:21:51.289Z,27.05
2022-08-26T06:24:41.724Z,28.17
2022-08-26T06:27:13.531Z,28.50
2022-08-26T06:29:41.868Z,29.30
2022-08-26T06:32:09.632Z,28.80
2022-08-26T06:34:37.659Z,31.42
2022-08-26T06:37:06.487Z,30.83
2022-08-26T06:39:34.385Z,33.65
2022-08-26T06:42:03.143Z,34.67
2022-08-26T06:44:31.186Z,34.80
2022-08-26T06:47:01.636Z,34.90
2022-08-26T06:49:29.352Z,37.00
2022-08-26T06:52:01.074Z,39.38
2022-08-26T06:54:31.829Z,38.17
2022-08-26T06:57:00.545Z,40.00
2022-08-26T06:59:28.546Z,38.55
2022-08-26T07:01:57.195Z,40.72
2022-08-26T07:04:25.052Z,42.38
2022-08-26T07:06:56.688Z,42.75
2022-08-26T07:09:28.239Z,44.60
2022-08-26T07:11:58.332Z,42.00
2022-08-26T07:14:26.447Z,42.08
2022-08-26T07:16:54.952Z,44.88
2022-08-26T07:19:27.565Z,41.15
2022-08-26T07:22:04.570Z,41.50
2022-08-26T07:24:35.111Z,41.33
2022-08-26T07:27:06.102Z,37.70
2022-08-26T07:29:35.079Z,38.67
2022-08-26T07:32:04.074Z,40.22
2022-08-26T07:34:33.382Z,39.00
2022-08-26T07:37:01.349Z,38.92
2022-08-26T07:39:31.493Z,40.50
2022-08-26T07:42:07.378Z,38.95
2022-08-26T07:44:37.873Z,40.92
2022-08-26T07:47:24.276Z,43.60
2022-08-26T07:49:57.868Z,42.35
2022-08-26T07:52:29.179Z,45.63
2022-08-26T07:54:59.066Z,40.90
2022-08-26T07:57:28.453Z,42.40
2022-08-26T07:59:57.040Z,44.42
2022-08-26T08:02:26.468Z,43.50
2022-08-26T08:04:55.232Z,42.30
2022-08-26T08:07:38.355Z,41.38
2022-08-26T08:10:11.507Z,41.70
2022-08-26T08:12:40.978Z,43.13
2022-08-26T08:15:09.883Z,44.70
2022-08-26T08:17:37.764Z,45.40
2022-08-26T08:20:07.467Z,44.63
2022-08-26T08:22:35.511Z,46.00
2022-08-26T08:25:06.222Z,45.13
2022-08-26T08:27:37.222Z,45.05
2022-08-26T08:30:06.824Z,45.17
2022-08-26T08:32:43.426Z,43.28
2022-08-26T08:35:13.399Z,43.58
2022-08-26T08:37:42.003Z,42.92
2022-08-26T08:40:15.412Z,43.30
2022-08-26T08:45:37.186Z,40.35
2022-08-26T08:48:27.346Z,39.35
2022-08-26T08:51:18.912Z,43.22
2022-08-26T08:53:49.607Z,39.63
2022-08-26T08:56:38.134Z,38.50
2022-08-26T08:59:17.888Z,39.53
2022-08-26T09:01:52.249Z,41.17
2022-08-26T09:04:58.829Z,39.33
2022-08-26T09:08:02.244Z,39.88
2022-08-26T09:10:38.248Z,36.08
2022-08-26T09:13:09.919Z,37.65
2022-08-26T09:15:57.131Z,36.78
2022-08-26T09:18:59.195Z,36.40
2022-08-26T09:21:27.861Z,36.47
2022-08-26T09:23:56.832Z,37.30
2022-08-26T09:26:40.122Z,37.30
2022-08-26T09:29:26.206Z,35.35
2022-08-26T09:32:13.523Z,39.05
2022-08-26T09:34:57.963Z,37.70
2022-08-26T09:37:39.924Z,36.58
2022-08-26T09:40:16.568Z,35.95
2022-08-26T09:42:45.182Z,39.40
2022-08-26T09:45:17.035Z,36.83
2022-08-26T09:47:48.125Z,35.63
2022-08-26T09:50:29.076Z,37.28
2022-08-26T09:53:25.250Z,38.30
2022-08-26T09:56:18.240Z,38.08
2022-08-26T09:58:47.607Z,38.85
2022-08-26T10:01:30.066Z,36.20
2022-08-26T10:04:15.065Z,36.55
2022-08-26T10:06:59.423Z,36.60
2022-08-26T10:09:28.541Z,37.67
2022-08-26T10:12:00.938Z,37.28
2022-08-26T10:14:32.627Z,36.10
2022-08-26T10:17:09.125Z,37.75
2022-08-26T10:19:56.537Z,36.30
2022-08-26T10:22:51.147Z,36.67
2022-08-26T10:25:24.854Z,34.30
2022-08-26T10:28:08.087Z,35.83
2022-08-26T10:30:56.894Z,35.63
2022-08-26T10:33:25.263Z,33.63
2022-08-26T10:35:55.120Z,35.60
2022-08-26T10:38:44.477Z,34.75
2022-08-26T10:41:20.909Z,33.45
2022-08-26T10:43:55.081Z,32.72
2022-08-26T10:46:27.406Z,34.33
2022-08-26T10:49:03.320Z,32.22
2022-08-26T10:51:46.483Z,33.58
2022-08-26T10:54:28.714Z,32.05
2022-08-26T10:57:28.482Z,29.95
2022-08-26T11:00:44.055Z,32.03
2022-08-26T11:03:29.081Z,30.60
2022-08-26T11:06:18.978Z,30.20
2022-08-26T11:08:47.999Z,29.75
2022-08-26T11:11:40.362Z,29.77
2022-08-26T11:14:28.360Z,30.98
2022-08-26T11:16:58.721Z,30.17
2022-08-26T11:19:59.568Z,29.40
2022-08-26T11:22:34.824Z,28.77
2022-08-26T11:25:15.410Z,28.52
2022-08-26T11:27:46.289Z,28.52
2022-08-26T11:30:15.823Z,28.38
2022-08-26T11:32:49.336Z,28.40
2022-08-26T11:35:18.823Z,27.35
2022-08-26T11:37:51.367Z,26.45
2022-08-26T11:40:30.255Z,28.05
2022-08-26T11:43:02.406Z,27.40
2022-08-26T11:45:39.160Z,27.00
2022-08-26T11:48:28.999Z,25.13
2022-08-26T11:51:13.480Z,25.33
2022-08-26T11:53:44.943Z,23.42
2022-08-26T11:56:24.582Z,24.15
2022-08-26T11:58:58.221Z,24.67
2022-08-26T12:01:28.910Z,22.17
2022-08-26T12:04:01.004Z,24.08
2022-08-26T12:06:33.542Z,23.65
2022-08-26T12:09:08.021Z,24.27
2022-08-26T12:11:37.609Z,23.95
2022-08-26T12:14:25.778Z,24.40
2022-08-26T12:17:08.273Z,24.38
2022-08-26T12:19:38.239Z,24.92
2022-08-26T12:22:25.429Z,24.08
2022-08-26T12:24:58.968Z,24.20
2022-08-26T12:27:41.985Z,25.30
2022-08-26T12:30:21.964Z,24.45
2022-08-26T12:32:57.642Z,24.27
2022-08-26T12:35:28.671Z,25.38
2022-08-26T12:37:58.280Z,26.15
2022-08-26T12:40:31.314Z,27.08
2022-08-26T12:43:01.938Z,27.70
2022-08-26T12:45:43.060Z,26.85
2022-08-26T12:48:13.660Z,28.17
2022-08-26T12:50:49.717Z,26.00
2022-08-26T12:53:24.940Z,27.00
2022-08-26T12:55:58.866Z,26.83
2022-08-26T12:58:31.772Z,25.98
2022-08-26T13:01:06.440Z,26.75
2022-08-26T13:03:34.292Z,25.08
2022-08-26T13:06:29.885Z,26.50
2022-08-26T13:09:09.574Z,25.20
2022-08-26T13:11:40.238Z,24.55
2022-08-26T13:14:10.707Z,24.58
2022-08-26T13:16:41.485Z,24.42
2022-08-26T13:19:12.023Z,23.42
2022-08-26T13:21:50.510Z,23.23
2022-08-26T13:24:20.665Z,23.25
2022-08-26T13:26:50.166Z,22.55
2022-08-26T13:29:18.685Z,24.45
2022-08-26T13:31:46.960Z,23.25
2022-08-26T13:34:18.906Z,21.92
2022-08-26T13:36:48.814Z,21.88
2022-08-26T13:39:17.445Z,21.88
2022-08-26T13:41:46.105Z,20.40
2022-08-26T13:44:14.158Z,20.27
2022-08-26T13:46:42.174Z,19.63
2022-08-26T13:49:10.281Z,20.00
2022-08-26T13:51:38.425Z,19.67
2022-08-26T13:54:06.773Z,19.38
2022-08-26T13:56:35.487Z,19.83
2022-08-26T13:59:03.525Z,20.80
2022-08-26T14:01:32.070Z,20.27
2022-08-26T14:03:59.741Z,20.52
2022-08-26T14:06:27.475Z,19.58
2022-08-26T14:08:56.773Z,20.38
2022-08-26T14:11:25.345Z,20.55
2022-08-26T14:13:53.090Z,20.48
2022-08-26T14:16:33.258Z,19.85
2022-08-26T14:19:02.099Z,18.95
2022-08-26T14:21:31.892Z,18.60
2022-08-26T14:24:01.072Z,20.17
2022-08-26T14:26:29.963Z,17.88
2022-08-26T14:28:58.916Z,17.15
2022-08-26T14:31:29.412Z,16.58
2022-08-26T14:34:01.043Z,16.75
2022-08-26T14:36:29.084Z,16.45
2022-08-26T14:39:02.902Z,13.85
2022-08-26T14:41:45.110Z,17.20
2022-08-26T14:44:25.401Z,17.73
2022-08-26T14:46:54.435Z,16.45
2022-08-26T14:49:23.416Z,17.20
2022-08-26T14:51:51.111Z,18.48
2022-08-26T14:54:20.181Z,18.05
2022-08-26T14:57:03.773Z,20.25
2022-08-26T14:59:35.658Z,20.65
2022-08-26T15:02:04.634Z,22.15
2022-08-26T15:04:32.677Z,25.85
2022-08-26T15:07:03.178Z,26.45
2022-08-26T15:09:34.144Z,23.42
2022-08-26T15:12:02.758Z,23.50
2022-08-26T15:14:32.937Z,22.50
2022-08-26T15:17:01.154Z,21.58
2022-08-26T15:19:29.097Z,22.23
2022-08-26T15:21:56.901Z,22.27
2022-08-26T15:24:26.264Z,21.90
2022-08-26T15:26:54.094Z,20.63
2022-08-26T15:29:23.906Z,20.42
2022-08-26T15:31:51.850Z,19.13
2022-08-26T15:34:26.649Z,19.70
2022-08-26T15:36:59.722Z,19.70
2022-08-26T15:39:27.775Z,17.05
2022-08-26T15:41:56.184Z,18.98
2022-08-26T15:44:26.168Z,16.42
2022-08-26T15:46:58.414Z,15.82
2022-08-26T15:49:27.472Z,15.18
2022-08-26T15:51:55.336Z,14.98
2022-08-26T15:54:24.400Z,15.27
2022-08-26T15:56:53.004Z,15.32
2022-08-26T15:59:22.099Z,16.83
2022-08-26T16:02:20.346Z,14.70
2022-08-26T16:05:08.976Z,14.30
2022-08-26T16:07:37.283Z,14.88
2022-08-26T16:10:05.584Z,13.93
2022-08-26T16:12:33.672Z,12.77
2022-08-26T16:15:01.508Z,13.30
2022-08-26T16:17:29.217Z,11.93
2022-08-26T16:19:56.983Z,12.60
2022-08-26T16:22:24.739Z,14.10
2022-08-26T16:24:58.059Z,11.70
2022-08-26T16:27:25.751Z,13.07
2022-08-26T16:29:53.429Z,12.07
2022-08-26T16:32:21.143Z,12.20
2022-08-26T16:34:56.410Z,12.95
2022-08-26T16:37:24.894Z,12.10
2022-08-26T16:39:52.592Z,14.10
2022-08-26T16:42:23.044Z,12.38
2022-08-26T16:44:51.692Z,9.98
2022-08-26T16:47:19.536Z,12.00
2022-08-26T16:49:47.726Z,10.50
2022-08-26T16:52:15.628Z,10.07
2022-08-26T16:54:43.626Z,13.30
2022-08-26T16:57:15.988Z,14.52
2022-08-26T16:59:43.690Z,9.77
2022-08-26T17:02:11.902Z,10.52
2022-08-26T17:04:39.881Z,8.98
2022-08-26T17:07:07.661Z,11.07
2022-08-26T17:09:35.608Z,13.40
2022-08-26T17:12:04.408Z,9.88
2022-08-26T17:14:33.553Z,11.95
2022-08-26T17:17:01.289Z,9.45
2022-08-26T17:19:29.210Z,10.10
2022-08-26T17:22:02.478Z,9.93
2022-08-26T17:24:34.618Z,14.95
2022-08-26T17:27:02.265Z,9.70
2022-08-26T17:29:30.042Z,10.70
2022-08-26T17:31:57.775Z,11.00
2022-08-26T17:34:26.217Z,9.30
2022-08-26T17:36:55.353Z,10.68
2022-08-26T17:39:42.608Z,11.45
2022-08-26T17:42:14.050Z,12.02
2022-08-26T17:45:16.067Z,9.35
2022-08-26T17:47:44.586Z,12.35
2022-08-26T17:50:15.310Z,9.77
2022-08-26T17:52:44.152Z,10.68
2022-08-26T17:55:16.710Z,10.27
2022-08-26T17:57:44.776Z,11.02
2022-08-26T18:00:27.351Z,12.45
2022-08-26T18:02:55.920Z,12.75
2022-08-26T18:05:27.401Z,11.57
2022-08-26T18:08:06.507Z,10.55
2022-08-26T18:10:40.128Z,9.00
2022-08-26T18:13:13.053Z,11.40
2022-08-26T18:15:45.803Z,12.18
2022-08-26T18:18:14.931Z,8.38
2022-08-26T18:20:44.673Z,10.23
2022-08-26T18:23:15.997Z,9.82
2022-08-26T18:25:45.820Z,12.25
2022-08-26T18:28:15.592Z,12.25
2022-08-26T18:30:45.889Z,9.85
2022-08-26T18:33:18.415Z,8.60
2022-08-26T18:35:46.079Z,8.73
2022-08-26T18:38:16.476Z,12.18
2022-08-26T18:40:47.259Z,10.05
2022-08-26T18:43:17.451Z,11.55
2022-08-26T18:45:45.218Z,10.05
2022-08-26T18:48:16.756Z,13.55
2022-08-26T18:50:47.530Z,11.68
2022-08-26T18:53:15.662Z,10.45
2022-08-26T18:55:46.774Z,11.90
2022-08-26T18:58:23.325Z,13.70
2022-08-26T19:00:51.320Z,11.48
2022-08-26T19:03:19.316Z,12.63
2022-08-26T19:05:47.070Z,12.40
2022-08-26T19:08:17.568Z,11.68
2022-08-26T19:10:45.263Z,9.52
2022-08-26T19:13:13.211Z,9.43
2022-08-26T19:15:45.993Z,9.55
2022-08-26T19:18:15.070Z,10.02
2022-08-26T19:20:46.950Z,11.63
2022-08-26T19:23:33.597Z,10.02
2022-08-26T19:26:05.828Z,13.05
2022-08-26T19:28:38.351Z,10.88
2022-08-26T19:31:08.056Z,13.38
2022-08-26T19:33:39.744Z,13.95
2022-08-26T19:36:11.439Z,12.13
2022-08-26T19:38:42.879Z,12.25
2022-08-26T19:41:13.383Z,13.98
2022-08-26T19:43:41.215Z,11.52
2022-08-26T19:46:13.324Z,12.63
2022-08-26T19:48:44.541Z,11.10
2022-08-26T19:51:17.360Z,11.50
2022-08-26T19:53:46.849Z,13.88
2022-08-26T19:56:16.343Z,11.73
2022-08-26T19:58:45.019Z,11.25
2022-08-26T20:01:14.295Z,11.70
2022-08-26T20:03:43.472Z,12.88
2022-08-26T20:06:12.805Z,13.70
2022-08-26T20:08:42.073Z,11.23
2022-08-26T20:11:14.626Z,9.57
2022-08-26T20:13:43.187Z,12.38
2022-08-26T20:16:12.242Z,12.27
2022-08-26T20:18:59.618Z,8.93
2022-08-26T20:21:29.618Z,11.07
2022-08-26T20:24:00.906Z,11.52
2022-08-26T20:26:30.338Z,9.82
2022-08-26T20:28:59.017Z,11.32
2022-08-26T20:31:27.291Z,10.45
2022-08-26T20:33:55.714Z,8.88
2022-08-26T20:36:26.822Z,9.70
2022-08-26T20:38:55.387Z,10.40
2022-08-26T20:41:25.636Z,12.32
2022-08-26T20:43:54.627Z,9.45
2022-08-26T20:46:24.848Z,12.02
2022-08-26T20:48:54.141Z,9.88
2022-08-26T20:51:28.607Z,14.75
2022-08-26T20:53:56.342Z,8.65
2022-08-26T20:56:24.759Z,11.55
2022-08-26T20:58:54.652Z,11.52
2022-08-26T21:01:26.107Z,10.98
2022-08-26T21:03:55.329Z,11.35
2022-08-26T21:06:23.683Z,11.95
2022-08-26T21:08:51.685Z,10.82
2022-08-26T21:11:20.976Z,10.40
2022-08-26T21:14:04.516Z,13.63
2022-08-26T21:16:36.758Z,13.05
2022-08-26T21:19:06.792Z,12.52
2022-08-26T21:21:34.990Z,11.93
2022-08-26T21:24:03.279Z,15.23
2022-08-26T21:26:32.637Z,15.13
2022-08-26T21:29:01.676Z,15.05
2022-08-26T21:31:31.983Z,14.80
2022-08-26T21:33:59.938Z,13.15
2022-08-26T21:36:28.343Z,12.90
2022-08-26T21:39:00.036Z,13.63
2022-08-26T21:41:28.836Z,12.23
2022-08-26T21:43:59.215Z,12.27
2022-08-26T21:46:29.060Z,10.57
2022-08-26T21:49:02.597Z,13.10
2022-08-26T21:51:34.119Z,9.80
2022-08-26T21:54:04.857Z,10.27
2022-08-26T21:56:39.741Z,12.57
2022-08-26T21:59:08.445Z,14.15
2022-08-26T22:01:37.683Z,12.00
2022-08-26T22:04:08.572Z,9.10
2022-08-26T22:06:44.943Z,10.20
2022-08-26T22:09:14.555Z,11.75
2022-08-26T22:11:43.038Z,8.30
2022-08-26T22:14:11.599Z,11.02
2022-08-26T22:16:39.501Z,10.82
2022-08-26T22:19:07.847Z,10.02
2022-08-26T22:21:40.071Z,11.15
2022-08-26T22:24:08.616Z,12.20
2022-08-26T22:26:36.430Z,11.88
2022-08-26T22:29:04.827Z,12.32
2022-08-26T22:31:37.206Z,10.15
2022-08-26T22:34:09.505Z,9.20
2022-08-26T22:36:43.673Z,13.00
2022-08-26T22:39:17.697Z,11.32
2022-08-26T22:41:46.608Z,11.82
2022-08-26T22:44:21.629Z,9.73
2022-08-26T22:46:54.159Z,9.88
2022-08-26T22:49:22.046Z,10.63
2022-08-26T22:51:51.029Z,12.30
2022-08-26T22:54:19.301Z,11.13
2022-08-26T22:56:47.010Z,9.65
2022-08-26T22:59:16.176Z,10.88
2022-08-26T23:01:44.693Z,10.52
2022-08-26T23:04:12.775Z,9.07
2022-08-26T23:06:43.174Z,9.73
2022-08-26T23:09:18.064Z,9.02
2022-08-26T23:11:47.787Z,10.48
2022-08-26T23:14:17.292Z,9.27
2022-08-26T23:16:45.121Z,11.60
2022-08-26T23:19:14.673Z,12.95
2022-08-26T23:21:42.709Z,11.82
2022-08-26T23:24:10.886Z,11.18
2022-08-26T23:26:40.898Z,10.68
2022-08-26T23:29:10.440Z,10.73
2022-08-26T23:31:40.254Z,12.82
2022-08-26T23:34:27.599Z,9.43
2022-08-26T23:36:58.999Z,10.35
2022-08-26T23:39:27.894Z,10.18
2022-08-26T23:41:56.956Z,9.32
2022-08-26T23:44:26.563Z,9.93
2022-08-26T23:46:55.425Z,8.55
2022-08-26T23:49:24.113Z,9.43
2022-08-26T23:52:11.455Z,11.48
2022-08-26T23:54:39.415Z,9.93
2022-08-26T23:57:07.895Z,10.02
2022-08-26T23:59:39.097Z,13.23
